TimeCDT,TemperatureF,Dew PointF,Humidity,Sea Level PressureIn,VisibilityMPH,Wind Direction,Wind SpeedMPH,Gust SpeedMPH,PrecipitationIn,Events,Conditions,WindDirDegrees,DateUTC
12:15 AM,82.4,75.0,78,29.97,10.0,SE,10.4,-,N/A,,Clear,140,2013-07-20 05:15:00
12:35 AM,82.2,75.4,80,29.97,10.0,SE,6.9,-,N/A,,Clear,140,2013-07-20 05:35:00
12:55 AM,81.9,75.9,82,29.97,10.0,SSE,5.8,-,N/A,,Scattered Clouds,150,2013-07-20 05:55:00
1:15 AM,81.5,76.8,86,29.97,10.0,SSE,4.6,-,N/A,,Scattered Clouds,160,2013-07-20 06:15:00
1:35 AM,81.0,75.6,84,29.97,10.0,SE,5.8,-,N/A,,Scattered Clouds,140,2013-07-20 06:35:00
1:55 AM,80.2,74.8,84,29.96,10.0,SSE,4.6,-,N/A,,Clear,160,2013-07-20 06:55:00
2:15 AM,80.1,75.6,86,29.96,10.0,South,4.6,-,N/A,,Clear,170,2013-07-20 07:15:00
2:35 AM,79.9,76.1,88,29.94,10.0,SSE,5.8,-,N/A,,Clear,150,2013-07-20 07:35:00
2:55 AM,79.9,76.3,89,29.94,10.0,SSE,5.8,-,N/A,,Clear,150,2013-07-20 07:55:00
3:15 AM,79.7,76.1,89,29.93,10.0,SSE,5.8,-,N/A,,Clear,150,2013-07-20 08:15:00
3:35 AM,79.7,76.1,89,29.93,10.0,South,3.5,-,N/A,,Clear,170,2013-07-20 08:35:00
3:55 AM,79.5,76.1,89,29.93,10.0,Calm,Calm,-,N/A,,Clear,0,2013-07-20 08:55:00
4:15 AM,79.7,76.1,89,29.93,10.0,SE,3.5,-,N/A,,Clear,130,2013-07-20 09:15:00
4:35 AM,79.7,76.1,89,29.92,10.0,Calm,Calm,-,N/A,,Clear,0,2013-07-20 09:35:00
4:55 AM,79.2,75.7,89,29.92,10.0,SE,3.5,-,N/A,,Clear,140,2013-07-20 09:55:00
5:15 AM,79.0,75.9,90,29.92,10.0,SE,3.5,-,N/A,,Clear,130,2013-07-20 10:15:00
5:35 AM,78.6,75.6,90,29.92,10.0,ESE,4.6,-,N/A,,Scattered Clouds,120,2013-07-20 10:35:00
5:55 AM,79.0,75.6,89,29.93,10.0,SE,3.5,-,N/A,,Scattered Clouds,130,2013-07-20 10:55:00
6:15 AM,79.0,75.4,89,29.93,10.0,East,4.6,-,N/A,,Scattered Clouds,100,2013-07-20 11:15:00
6:35 AM,79.0,75.4,89,29.93,10.0,East,4.6,-,N/A,,Clear,100,2013-07-20 11:35:00
6:55 AM,79.7,75.7,88,29.94,10.0,East,3.5,-,N/A,,Clear,100,2013-07-20 11:55:00
7:15 AM,79.7,75.9,88,29.94,10.0,East,3.5,-,N/A,,Scattered Clouds,100,2013-07-20 12:15:00
7:35 AM,80.1,76.5,89,29.94,5.0,Calm,Calm,-,N/A,,Scattered Clouds,0,2013-07-20 12:35:00
7:55 AM,81.1,77.4,88,29.95,10.0,Calm,Calm,-,N/A,,Clear,0,2013-07-20 12:55:00
8:15 AM,83.5,77.0,81,29.95,10.0,SE,6.9,-,N/A,,Clear,140,2013-07-20 13:15:00
8:35 AM,84.7,75.4,73,29.95,10.0,SE,6.9,-,N/A,,Clear,140,2013-07-20 13:35:00
8:55 AM,85.3,75.2,72,29.95,10.0,SE,8.1,-,N/A,,Scattered Clouds,140,2013-07-20 13:55:00
9:15 AM,86.4,74.3,67,29.95,10.0,SE,8.1,-,N/A,,Scattered Clouds,130,2013-07-20 14:15:00
9:35 AM,86.7,73.8,65,29.95,10.0,SSE,6.9,-,N/A,,Scattered Clouds,160,2013-07-20 14:35:00
9:55 AM,87.8,73.8,63,29.95,10.0,SSE,5.8,-,N/A,,Scattered Clouds,160,2013-07-20 14:55:00
10:15 AM,87.8,73.4,62,29.94,10.0,ESE,5.8,-,N/A,,Scattered Clouds,110,2013-07-20 15:15:00
10:35 AM,88.7,73.0,60,29.94,10.0,ESE,5.8,-,N/A,,Scattered Clouds,110,2013-07-20 15:35:00
10:55 AM,88.7,72.7,59,29.94,10.0,SE,8.1,-,N/A,,Scattered Clouds,140,2013-07-20 15:55:00
11:15 AM,88.7,73.2,60,29.94,10.0,ESE,10.4,-,N/A,,Mostly Cloudy,110,2013-07-20 16:15:00
11:35 AM,90.1,73.9,59,29.94,10.0,ESE,10.4,-,N/A,,Scattered Clouds,120,2013-07-20 16:35:00
11:55 AM,89.6,74.1,60,29.94,10.0,SE,11.5,-,N/A,,Mostly Cloudy,130,2013-07-20 16:55:00
12:15 PM,89.1,74.3,62,29.94,10.0,SSE,11.5,18.4,N/A,,Mostly Cloudy,150,2013-07-20 17:15:00
12:35 PM,88.9,74.5,62,29.94,10.0,SSE,13.8,17.3,N/A,,Mostly Cloudy,150,2013-07-20 17:35:00
12:55 PM,90.3,74.8,60,29.93,10.0,SE,13.8,-,N/A,,Scattered Clouds,140,2013-07-20 17:55:00
1:15 PM,90.1,74.8,61,29.93,10.0,SE,11.5,19.6,N/A,,Scattered Clouds,130,2013-07-20 18:15:00
1:35 PM,90.1,74.5,60,29.93,10.0,SE,11.5,18.4,N/A,,Mostly Cloudy,140,2013-07-20 18:35:00
1:55 PM,90.0,74.7,61,29.93,10.0,SE,13.8,-,N/A,,Scattered Clouds,140,2013-07-20 18:55:00
2:15 PM,90.5,74.3,59,29.92,10.0,SE,12.7,18.4,N/A,,Mostly Cloudy,140,2013-07-20 19:15:00
2:35 PM,90.0,74.8,61,29.91,10.0,SE,13.8,19.6,N/A,,Mostly Cloudy,130,2013-07-20 19:35:00
2:55 PM,91.2,74.3,57,29.90,10.0,SE,12.7,17.3,N/A,,Scattered Clouds,140,2013-07-20 19:55:00
3:15 PM,90.3,74.5,59,29.90,10.0,SE,11.5,-,N/A,,Scattered Clouds,140,2013-07-20 20:15:00
3:35 PM,88.3,74.3,63,29.90,10.0,SE,13.8,-,N/A,,Scattered Clouds,140,2013-07-20 20:35:00
3:55 PM,88.5,75.0,64,29.89,10.0,SE,15.0,-,N/A,,Scattered Clouds,130,2013-07-20 20:55:00
4:15 PM,89.4,75.0,62,29.89,10.0,SE,16.1,-,N/A,,Scattered Clouds,130,2013-07-20 21:15:00
4:35 PM,90.1,75.4,62,29.88,10.0,SE,13.8,19.6,N/A,,Clear,140,2013-07-20 21:35:00
4:55 PM,88.9,74.8,63,29.87,10.0,ESE,16.1,20.7,N/A,,Scattered Clouds,120,2013-07-20 21:55:00
5:15 PM,88.0,73.8,63,29.87,10.0,ESE,11.5,-,N/A,,Clear,120,2013-07-20 22:15:00
5:35 PM,86.9,73.9,65,29.87,10.0,SE,12.7,-,N/A,,Clear,130,2013-07-20 22:35:00
5:55 PM,86.9,74.3,66,29.87,10.0,SE,12.7,17.3,N/A,,Clear,130,2013-07-20 22:55:00
6:15 PM,88.0,74.8,65,29.87,10.0,SSE,13.8,-,N/A,,Clear,150,2013-07-20 23:15:00
6:35 PM,88.2,74.7,64,29.87,10.0,SE,11.5,-,N/A,,Clear,140,2013-07-20 23:35:00
6:55 PM,87.4,74.7,66,29.87,10.0,SE,12.7,-,N/A,,Clear,140,2013-07-20 23:55:00
7:15 PM,86.4,74.5,68,29.87,10.0,SE,13.8,-,N/A,,Scattered Clouds,130,2013-07-21 00:15:00
7:35 PM,85.6,73.9,68,29.87,10.0,SE,10.4,-,N/A,,Clear,140,2013-07-21 00:35:00
7:55 PM,85.3,75.2,72,29.87,10.0,SE,12.7,-,N/A,,Clear,130,2013-07-21 00:55:00
8:15 PM,84.4,75.4,74,29.87,10.0,SE,12.7,16.1,N/A,,Scattered Clouds,130,2013-07-21 01:15:00
8:35 PM,84.0,75.2,75,29.87,10.0,SE,12.7,-,N/A,,Scattered Clouds,140,2013-07-21 01:35:00
8:55 PM,83.5,75.2,76,29.87,10.0,Calm,Calm,-,N/A,,Scattered Clouds,0,2013-07-21 01:55:00
9:15 PM,83.3,75.0,76,29.87,10.0,SSE,11.5,-,N/A,,Clear,150,2013-07-21 02:15:00
9:35 PM,83.3,75.4,77,29.88,10.0,SE,11.5,-,N/A,,Clear,140,2013-07-21 02:35:00
9:55 PM,83.1,75.6,78,29.89,10.0,SSE,13.8,17.3,N/A,,Scattered Clouds,150,2013-07-21 02:55:00
10:15 PM,83.3,75.6,77,29.89,10.0,SSE,10.4,-,N/A,,Scattered Clouds,150,2013-07-21 03:15:00
10:35 PM,83.3,76.1,79,29.91,10.0,SSE,11.5,16.1,N/A,,Mostly Cloudy,160,2013-07-21 03:35:00
10:55 PM,83.5,75.9,78,29.92,10.0,South,9.2,-,N/A,,Scattered Clouds,170,2013-07-21 03:55:00
11:15 PM,83.3,76.1,79,29.93,10.0,South,9.2,16.1,N/A,,Scattered Clouds,170,2013-07-21 04:15:00
11:35 PM,83.5,76.3,79,29.92,10.0,South,9.2,-,N/A,,Scattered Clouds,170,2013-07-21 04:35:00
11:55 PM,83.5,76.5,79,29.93,10.0,SSE,8.1,-,N/A,Rain,Rain,150,2013-07-21 04:55:00